Time;durP1;ratioP1;P1;durP2;ratioP2;P2;SDS_P1;SDS_P2;PMS_P1;PMS_P2;Temp;Humidity;BMP_temperature;BMP_pressure;BME280_temperature;BME280_humidity;BME280_pressure;Samples;Min_cycle;Max_cycle;Signal;HPM_P1;HPM_P2
2022/04/25 00:02:16;;;;;;;16.70;7.53;;;17.30;54.80;;;;;;4208729;28;20467;-66
2022/04/25 00:04:38;;;;;;;13.52;8.02;;;17.30;54.80;;;;;;4208670;28;20054;-66
2022/04/25 00:07:00;;;;;;;14.00;7.75;;;17.30;54.70;;;;;;4208706;28;20054;-66
2022/04/25 00:09:22;;;;;;;10.38;7.47;;;17.20;54.60;;;;;;4207909;28;20385;-66
2022/04/25 00:11:46;;;;;;;14.90;7.35;;;17.30;54.80;;;;;;4209148;28;20685;-66
2022/04/25 00:14:08;;;;;;;9.55;7.43;;;17.30;55.00;;;;;;4208531;28;20048;-66
2022/04/25 00:16:30;;;;;;;11.48;7.45;;;17.20;55.10;;;;;;4208462;28;20043;-66
2022/04/25 00:18:52;;;;;;;11.77;7.97;;;17.20;55.20;;;;;;4208364;28;20050;-66
2022/04/25 00:21:14;;;;;;;12.25;7.68;;;17.20;55.30;;;;;;4208454;28;20054;-66
2022/04/25 00:23:37;;;;;;;11.88;7.63;;;17.20;55.30;;;;;;4208569;28;20055;-66
2022/04/25 00:25:59;;;;;;;12.75;7.50;;;17.20;55.40;;;;;;4206886;28;20040;-66
2022/04/25 00:28:23;;;;;;;12.02;7.72;;;17.20;55.40;;;;;;4206451;28;20040;-68
2022/04/25 00:30:44;;;;;;;12.82;7.60;;;17.20;55.30;;;;;;4190546;28;20494;-67
2022/04/25 00:33:07;;;;;;;11.68;7.07;;;17.20;55.40;;;;;;4196570;28;20101;-67
2022/04/25 00:35:29;;;;;;;12.60;7.35;;;17.20;55.50;;;;;;4208350;28;20131;-67
2022/04/25 00:37:52;;;;;;;13.63;8.18;;;17.20;55.40;;;;;;4208250;28;20052;-67
2022/04/25 00:40:15;;;;;;;10.48;7.45;;;17.20;55.30;;;;;;4208813;28;20483;-67
2022/04/25 00:42:37;;;;;;;9.65;7.70;;;17.20;55.60;;;;;;4208624;28;20056;-67
2022/04/25 00:45:01;;;;;;;12.23;7.65;;;17.20;55.50;;;;;;4208634;28;20493;-67
2022/04/25 00:47:24;;;;;;;14.02;7.68;;;17.10;55.20;;;;;;4208446;28;20470;-67
2022/04/25 00:49:45;;;;;;;15.50;8.30;;;17.20;55.10;;;;;;4207958;28;20052;-67
2022/04/25 00:52:07;;;;;;;10.05;7.10;;;17.10;55.10;;;;;;4208414;28;20135;-67
2022/04/25 00:54:32;;;;;;;11.55;7.47;;;17.10;55.30;;;;;;4211055;28;20479;-67
2022/04/25 00:56:55;;;;;;;10.40;7.97;;;17.10;55.60;;;;;;4211463;28;20051;-67
2022/04/25 00:59:19;;;;;;;10.43;7.30;;;17.10;55.40;;;;;;4211297;28;20052;-67
2022/04/25 01:01:43;;;;;;;12.68;7.55;;;17.10;55.70;;;;;;4211065;28;20040;-67
2022/04/25 01:04:05;;;;;;;12.00;7.32;;;17.10;55.90;;;;;;4211514;28;20127;-67
2022/04/25 01:06:27;;;;;;;10.95;8.05;;;17.10;56.70;;;;;;4194372;28;20052;-66
2022/04/25 01:08:51;;;;;;;14.27;7.85;;;17.10;55.90;;;;;;4207916;28;20113;-67
2022/04/25 01:11:14;;;;;;;10.43;6.88;;;17.10;55.50;;;;;;4211356;28;20075;-66
2022/04/25 01:13:36;;;;;;;11.02;7.53;;;17.10;55.70;;;;;;4211505;28;20498;-67
2022/04/25 01:15:58;;;;;;;10.80;7.13;;;17.10;55.50;;;;;;4211337;28;20048;-67
2022/04/25 01:18:22;;;;;;;11.57;7.15;;;17.10;55.30;;;;;;4209704;28;20074;-66
2022/04/25 01:20:44;;;;;;;10.70;7.32;;;17.10;55.60;;;;;;4210868;28;20054;-67
2022/04/25 01:28:30;;;;;;;9.18;6.65;;;17.10;55.90;;;;;;4210400;28;20140;-67
2022/04/25 01:30:52;;;;;;;9.90;6.93;;;17.00;55.90;;;;;;4211117;28;20157;-67
2022/04/25 01:33:14;;;;;;;10.73;7.53;;;17.10;56.00;;;;;;4210692;28;20205;-67
2022/04/25 01:35:36;;;;;;;8.80;7.13;;;17.00;55.90;;;;;;4210868;28;20135;-67
2022/04/25 01:37:58;;;;;;;8.82;7.15;;;17.10;56.10;;;;;;4211046;28;20086;-67
2022/04/25 01:40:21;;;;;;;14.57;7.57;;;17.00;56.10;;;;;;4209633;28;20368;-67
2022/04/25 01:42:44;;;;;;;11.32;7.85;;;17.00;56.00;;;;;;4209439;28;20044;-68
2022/04/25 01:45:07;;;;;;;12.10;6.57;;;17.00;55.30;;;;;;4209300;28;20070;-67
2022/04/25 01:47:29;;;;;;;11.30;7.28;;;17.00;55.40;;;;;;4210671;28;20491;-67
2022/04/25 01:49:51;;;;;;;11.80;7.25;;;17.00;55.80;;;;;;4210385;28;20388;-67
2022/04/25 01:52:20;;;;;;;12.15;7.00;;;17.00;55.70;;;;;;4210529;28;20044;-67
2022/04/25 01:54:43;;;;;;;12.35;7.50;;;17.00;55.60;;;;;;4210269;28;20502;-67
2022/04/25 01:57:06;;;;;;;9.45;6.95;;;17.00;55.90;;;;;;4193878;28;20049;-67
2022/04/25 01:59:30;;;;;;;11.13;7.15;;;17.00;56.00;;;;;;4192539;28;20055;-67
2022/04/25 02:01:52;;;;;;;9.02;6.60;;;17.00;56.00;;;;;;4193835;28;20501;-67
2022/04/25 02:04:15;;;;;;;10.45;6.10;;;16.90;55.70;;;;;;4193723;28;20045;-67
2022/04/25 02:06:37;;;;;;;9.95;6.07;;;17.00;55.40;;;;;;4193517;28;20051;-68
2022/04/25 02:08:59;;;;;;;10.32;6.75;;;17.00;55.50;;;;;;4209891;28;20498;-68
2022/04/25 02:11:21;;;;;;;9.27;6.53;;;16.90;55.30;;;;;;4210589;28;20047;-68
2022/04/25 02:13:45;;;;;;;11.02;6.72;;;16.90;55.30;;;;;;4210446;28;20054;-68
2022/04/25 02:16:08;;;;;;;11.35;5.90;;;16.90;54.90;;;;;;4210285;28;20052;-68
2022/04/25 02:18:31;;;;;;;7.88;6.03;;;16.90;54.90;;;;;;4208827;28;20495;-68
2022/04/25 02:20:53;;;;;;;8.38;5.95;;;16.90;55.10;;;;;;4209636;28;20445;-68
2022/04/25 02:23:16;;;;;;;10.98;6.05;;;16.90;55.40;;;;;;4210614;28;20118;-68
2022/04/25 02:25:39;;;;;;;13.20;6.10;;;16.90;55.40;;;;;;4210275;28;20139;-68
2022/04/25 02:28:01;;;;;;;11.18;5.80;;;16.90;55.40;;;;;;4209747;28;20062;-67
2022/04/25 02:30:24;;;;;;;13.52;6.35;;;16.90;55.00;;;;;;4208798;28;20077;-67
2022/04/25 02:32:46;;;;;;;13.00;6.55;;;16.80;55.10;;;;;;4210047;28;20044;-67
2022/04/25 02:35:09;;;;;;;11.45;6.88;;;16.80;55.60;;;;;;4209660;28;20113;-68
2022/04/25 02:37:31;;;;;;;9.85;6.90;;;16.80;54.90;;;;;;4210079;28;20059;-68
2022/04/25 02:39:54;;;;;;;10.70;7.03;;;16.80;54.80;;;;;;4193219;28;20123;-68
2022/04/25 02:42:16;;;;;;;11.43;7.32;;;16.80;54.80;;;;;;4192945;28;20459;-68
2022/04/25 02:44:38;;;;;;;14.40;7.30;;;16.80;55.30;;;;;;4192676;28;20113;-68
2022/04/25 02:47:06;;;;;;;10.88;7.78;;;16.80;54.70;;;;;;4193108;28;20387;-68
2022/04/25 02:49:28;;;;;;;13.15;7.15;;;16.80;54.80;;;;;;4190994;28;20479;-68
2022/04/25 02:51:50;;;;;;;9.95;6.95;;;16.70;54.90;;;;;;4207511;28;20379;-69
2022/04/25 02:54:12;;;;;;;9.05;6.97;;;16.70;55.00;;;;;;4209832;28;20094;-68
2022/04/25 02:56:34;;;;;;;10.93;7.63;;;16.70;55.20;;;;;;4209246;28;20131;-68
2022/04/25 02:58:56;;;;;;;8.35;7.07;;;16.70;55.00;;;;;;4209737;28;20040;-68
2022/04/25 03:01:18;;;;;;;9.15;6.40;;;16.60;54.80;;;;;;4209702;28;20051;-68
2022/04/25 03:03:42;;;;;;;8.32;5.82;;;16.60;54.70;;;;;;4207723;28;20051;-68
2022/04/25 03:06:05;;;;;;;10.45;6.60;;;16.60;54.80;;;;;;4208192;28;20048;-68
2022/04/25 03:08:27;;;;;;;11.82;6.43;;;16.60;54.60;;;;;;4209497;28;20040;-68
2022/04/25 03:10:52;;;;;;;11.90;6.50;;;16.60;54.70;;;;;;4209173;28;20055;-68
2022/04/25 03:13:15;;;;;;;10.55;6.25;;;16.60;54.70;;;;;;4209033;28;20062;-68
2022/04/25 03:15:38;;;;;;;9.93;5.80;;;16.60;55.30;;;;;;4209283;28;20047;-68
2022/04/25 03:18:01;;;;;;;8.05;5.78;;;16.50;55.30;;;;;;4209176;28;20410;-67
2022/04/25 03:20:25;;;;;;;9.35;6.28;;;16.50;54.90;;;;;;4209063;28;20059;-67
2022/04/25 03:22:47;;;;;;;8.60;6.22;;;16.50;54.80;;;;;;4208147;28;20097;-68
2022/04/25 03:25:09;;;;;;;8.40;5.93;;;16.50;54.90;;;;;;4209299;28;20550;-68
2022/04/25 03:27:31;;;;;;;9.45;6.53;;;16.50;55.30;;;;;;4208811;28;20040;-67
2022/04/25 03:29:53;;;;;;;9.88;6.50;;;16.50;55.60;;;;;;4209425;28;20040;-67
2022/04/25 03:32:16;;;;;;;8.95;6.38;;;16.50;55.40;;;;;;4209091;28;20040;-67
2022/04/25 03:34:38;;;;;;;9.30;5.97;;;16.50;55.50;;;;;;4207907;28;20048;-67
2022/04/25 03:37:01;;;;;;;16.48;6.65;;;16.50;56.00;;;;;;4209376;28;20043;-67
2022/04/25 03:39:23;;;;;;;8.45;6.07;;;16.50;55.60;;;;;;4209319;28;20060;-67
2022/04/25 03:41:47;;;;;;;8.18;6.25;;;16.50;55.70;;;;;;4208910;28;20040;-68
2022/04/25 03:44:09;;;;;;;11.30;6.85;;;16.50;55.70;;;;;;4207190;28;20040;-68
2022/04/25 03:46:32;;;;;;;11.13;7.18;;;16.50;55.30;;;;;;4208853;28;20147;-68
2022/04/25 03:48:54;;;;;;;11.32;6.45;;;16.50;55.20;;;;;;4207653;28;20135;-68
2022/04/25 03:51:16;;;;;;;9.95;7.07;;;16.40;55.20;;;;;;4208998;28;20165;-68
2022/04/25 03:53:39;;;;;;;9.50;5.78;;;16.50;55.90;;;;;;4208337;28;20055;-68
2022/04/25 03:58:44;;;;;;;12.65;7.13;;;16.40;56.10;;;;;;4189861;28;20044;-68
2022/04/25 04:01:06;;;;;;;9.98;6.25;;;16.40;55.90;;;;;;4208678;28;20069;-68
2022/04/25 04:03:28;;;;;;;11.48;7.05;;;16.40;55.70;;;;;;4208803;28;20144;-68
2022/04/25 04:05:53;;;;;;;10.73;6.85;;;16.40;55.50;;;;;;4191852;28;20109;-67
2022/04/25 04:08:16;;;;;;;7.68;6.72;;;16.40;55.60;;;;;;4191949;28;20040;-68
2022/04/25 04:10:39;;;;;;;10.95;7.90;;;16.40;55.70;;;;;;4192088;28;20045;-67
2022/04/25 04:13:01;;;;;;;10.10;6.20;;;16.40;56.10;;;;;;4192127;28;20052;-66
2022/04/25 04:15:23;;;;;;;8.10;6.50;;;16.40;55.60;;;;;;4206359;28;20062;-67
2022/04/25 04:17:45;;;;;;;8.82;6.05;;;16.40;55.40;;;;;;4208629;28;20055;-66
2022/04/25 04:20:09;;;;;;;8.68;5.72;;;16.40;56.30;;;;;;4208961;28;20509;-66
2022/04/25 04:22:33;;;;;;;9.65;5.90;;;16.40;55.60;;;;;;4207537;28;20594;-66
2022/04/25 04:25:00;;;;;;;9.73;6.80;;;16.40;55.60;;;;;;4208808;28;20093;-67
2022/04/25 04:27:23;;;;;;;9.05;6.35;;;16.40;55.60;;;;;;4208847;28;20062;-67
2022/04/25 04:29:45;;;;;;;11.27;6.93;;;16.40;55.80;;;;;;4211913;28;20047;-67
2022/04/25 04:32:09;;;;;;;10.73;7.00;;;16.40;55.90;;;;;;4211669;28;20052;-66
2022/04/25 04:34:31;;;;;;;11.73;6.68;;;16.30;55.60;;;;;;4210377;28;20042;-66
2022/04/25 04:36:54;;;;;;;8.55;6.20;;;16.30;55.60;;;;;;4211911;28;20067;-66
2022/04/25 04:39:16;;;;;;;8.98;6.78;;;16.30;55.40;;;;;;4210432;28;20577;-66
2022/04/25 04:41:38;;;;;;;8.82;6.60;;;16.30;55.40;;;;;;4211486;28;20482;-66
2022/04/25 04:44:02;;;;;;;10.15;6.65;;;16.30;55.80;;;;;;4211211;28;21841;-66
2022/04/25 04:46:25;;;;;;;9.02;6.38;;;16.30;55.80;;;;;;4210496;28;20461;-66
2022/04/25 04:48:47;;;;;;;8.75;6.65;;;16.30;55.90;;;;;;4211489;28;20117;-66
2022/04/25 04:51:10;;;;;;;9.95;6.85;;;16.30;55.80;;;;;;4211649;28;20117;-66
2022/04/25 04:53:32;;;;;;;7.50;6.38;;;16.30;55.50;;;;;;4211402;28;20056;-66
2022/04/25 04:55:57;;;;;;;9.10;6.88;;;16.30;55.60;;;;;;4211787;28;20710;-66
2022/04/25 04:58:19;;;;;;;7.97;5.90;;;16.30;55.30;;;;;;4210361;28;20082;-66
2022/04/25 05:00:44;;;;;;;10.02;5.95;;;16.30;55.60;;;;;;4211173;28;20044;-66
2022/04/25 05:03:06;;;;;;;10.18;6.15;;;16.30;55.90;;;;;;4208360;28;20040;-66
2022/04/25 05:05:28;;;;;;;9.73;5.28;;;16.30;55.40;;;;;;4209232;28;20129;-67
2022/04/25 05:07:50;;;;;;;6.85;5.53;;;16.30;55.20;;;;;;4211106;28;20052;-66
2022/04/25 05:10:12;;;;;;;9.60;6.05;;;16.30;55.30;;;;;;4201374;28;20048;-66
2022/04/25 05:12:45;;;;;;;8.40;6.18;;;16.20;55.20;;;;;;4211233;28;20052;-66
2022/04/25 05:15:07;;;;;;;11.10;6.75;;;16.20;55.50;;;;;;4210831;28;20095;-66
2022/04/25 05:17:31;;;;;;;11.55;6.55;;;16.20;55.50;;;;;;4210417;28;20530;-66
2022/04/25 05:19:53;;;;;;;8.15;6.20;;;16.20;55.60;;;;;;4211039;28;20055;-66
2022/04/25 05:22:15;;;;;;;10.85;5.85;;;16.20;55.70;;;;;;4209861;28;20514;-66
2022/04/25 05:24:37;;;;;;;9.55;6.03;;;16.20;56.00;;;;;;4210732;28;20795;-66
2022/04/25 05:26:59;;;;;;;9.35;5.78;;;16.20;56.30;;;;;;4211148;28;20059;-68
2022/04/25 05:29:21;;;;;;;10.77;5.90;;;16.20;56.10;;;;;;4194478;28;20056;-66
2022/04/25 05:31:44;;;;;;;9.85;5.55;;;16.20;55.90;;;;;;4194286;28;20068;-67
2022/04/25 05:34:09;;;;;;;11.50;5.53;;;16.10;55.70;;;;;;4194260;28;20144;-66
2022/04/25 05:36:31;;;;;;;11.88;5.60;;;16.20;56.10;;;;;;4202966;28;20418;-66
2022/04/25 05:38:53;;;;;;;10.95;6.40;;;16.20;57.00;;;;;;4209207;28;20075;-66
2022/04/25 05:41:15;;;;;;;6.22;5.07;;;16.20;56.50;;;;;;4211044;28;20043;-67
2022/04/25 05:43:38;;;;;;;8.68;6.13;;;16.10;56.70;;;;;;4211000;28;20143;-67
2022/04/25 05:46:00;;;;;;;10.05;6.35;;;16.20;56.40;;;;;;4210335;28;20059;-66
2022/04/25 05:53:43;;;;;;;9.60;7.07;;;16.20;56.70;;;;;;4193108;28;20063;-67
2022/04/25 05:56:05;;;;;;;11.35;7.07;;;16.20;56.60;;;;;;4192339;28;20059;-67
2022/04/25 05:58:27;;;;;;;15.68;6.68;;;16.10;55.70;;;;;;4193129;28;20107;-67
2022/04/25 06:00:49;;;;;;;11.27;6.03;;;16.10;55.80;;;;;;4201822;28;20047;-67
2022/04/25 06:03:11;;;;;;;10.35;7.03;;;16.00;55.90;;;;;;4195752;28;20499;-67
2022/04/25 06:05:34;;;;;;;10.00;7.05;;;16.00;56.80;;;;;;4187721;28;20119;-66
2022/04/25 06:07:58;;;;;;;8.77;6.65;;;15.90;56.00;;;;;;4178673;28;20041;-65
2022/04/25 06:10:22;;;;;;;15.65;7.22;;;15.90;56.00;;;;;;4176502;28;20127;-66
2022/04/25 06:12:47;;;;;;;8.63;6.80;;;15.90;56.10;;;;;;4184784;28;20102;-66
2022/04/25 06:15:10;;;;;;;13.20;7.55;;;15.80;56.20;;;;;;4202364;28;20059;-66
2022/04/25 06:17:32;;;;;;;11.57;6.78;;;15.70;56.40;;;;;;4193402;28;20083;-66
2022/04/25 06:19:54;;;;;;;9.20;6.50;;;15.70;56.40;;;;;;4193678;28;20408;-66
2022/04/25 06:22:18;;;;;;;10.55;6.72;;;15.70;56.60;;;;;;4193566;28;20063;-66
2022/04/25 06:24:42;;;;;;;8.13;6.50;;;15.70;56.70;;;;;;4193120;28;20048;-66
2022/04/25 06:27:05;;;;;;;10.77;6.97;;;15.60;56.80;;;;;;4193014;28;20063;-66
2022/04/25 06:29:27;;;;;;;8.57;6.78;;;15.70;57.10;;;;;;4193521;28;20132;-66
2022/04/25 06:31:50;;;;;;;10.77;6.75;;;15.60;56.90;;;;;;4181228;28;20360;-66
2022/04/25 06:34:12;;;;;;;11.80;7.05;;;15.60;56.80;;;;;;4193353;28;20131;-66
2022/04/25 06:36:34;;;;;;;10.63;6.03;;;15.60;57.10;;;;;;4193336;28;20051;-60
2022/04/25 06:38:56;;;;;;;11.35;6.32;;;15.60;57.20;;;;;;4190671;28;20043;-66
2022/04/25 06:41:21;;;;;;;8.35;7.18;;;15.60;57.20;;;;;;4191042;28;20456;-65
2022/04/25 06:43:44;;;;;;;14.00;8.23;;;15.60;57.00;;;;;;4190472;28;20044;-65
2022/04/25 06:46:06;;;;;;;11.75;7.85;;;15.60;57.00;;;;;;4189928;28;20513;-66
2022/04/25 06:48:28;;;;;;;13.13;7.35;;;15.60;57.30;;;;;;4190601;28;20083;-66
2022/04/25 06:50:51;;;;;;;12.90;7.80;;;15.60;57.50;;;;;;4189767;28;20131;-66
2022/04/25 06:53:13;;;;;;;12.90;7.75;;;15.60;57.50;;;;;;4189123;28;20138;-69
2022/04/25 06:55:35;;;;;;;8.98;7.20;;;15.60;57.60;;;;;;4190739;28;20079;-69
2022/04/25 06:58:00;;;;;;;10.82;6.70;;;15.70;57.60;;;;;;4190169;28;20139;-68
2022/04/25 07:00:24;;;;;;;10.20;7.35;;;15.70;57.30;;;;;;4190170;28;20521;-69
2022/04/25 07:02:55;;;;;;;11.35;8.60;;;15.70;57.20;;;;;;4205990;28;20497;-69
2022/04/25 07:05:18;;;;;;;11.30;8.27;;;15.60;57.10;;;;;;4207455;28;20062;-69
2022/04/25 07:07:42;;;;;;;14.20;7.60;;;15.60;57.30;;;;;;4206017;28;20097;-68
2022/04/25 07:10:05;;;;;;;12.35;8.25;;;15.60;57.30;;;;;;4206271;28;20051;-69
2022/04/25 07:12:28;;;;;;;10.73;8.18;;;15.60;57.10;;;;;;4206585;28;20052;-69
2022/04/25 07:14:52;;;;;;;10.98;8.30;;;15.60;57.80;;;;;;4207254;28;20054;-70
2022/04/25 07:17:14;;;;;;;14.10;8.35;;;15.60;57.10;;;;;;4205580;28;20051;-70
2022/04/25 07:19:39;;;;;;;12.52;8.65;;;15.60;57.10;;;;;;4205198;28;20055;-70
2022/04/25 07:30:02;;;;;;;10.38;7.72;;;15.50;57.30;;;;;;4206443;28;20066;-70
2022/04/25 07:32:24;;;;;;;13.23;8.77;;;15.50;57.40;;;;;;4207092;28;20067;-69
2022/04/25 07:34:47;;;;;;;12.20;8.20;;;15.50;57.50;;;;;;4206515;28;20105;-69
2022/04/25 07:37:09;;;;;;;12.90;7.05;;;15.50;57.40;;;;;;4206463;28;20044;-70
2022/04/25 07:39:31;;;;;;;9.70;7.38;;;15.50;57.30;;;;;;4206639;28;20062;-69
2022/04/25 07:41:53;;;;;;;11.38;6.80;;;15.50;57.30;;;;;;4206501;28;20052;-70
2022/04/25 07:44:16;;;;;;;9.77;6.38;;;15.50;57.50;;;;;;4206565;28;20086;-70
2022/04/25 07:46:41;;;;;;;9.95;6.00;;;15.50;57.60;;;;;;4205862;28;20067;-69
2022/04/25 07:49:04;;;;;;;10.68;6.07;;;15.40;58.20;;;;;;4205977;28;20470;-69
2022/04/25 07:51:26;;;;;;;7.63;4.93;;;15.40;57.60;;;;;;4205912;28;20067;-69
2022/04/25 07:53:49;;;;;;;12.15;6.18;;;15.40;57.50;;;;;;4205860;28;20052;-69
2022/04/25 07:56:11;;;;;;;10.70;5.38;;;15.40;57.50;;;;;;4205253;28;20048;-69
2022/04/25 07:58:34;;;;;;;10.35;4.85;;;15.40;57.60;;;;;;4206051;28;20048;-68
2022/04/25 08:00:56;;;;;;;9.60;5.15;;;15.40;57.60;;;;;;4206136;28;20071;-67
2022/04/25 08:03:21;;;;;;;8.60;4.68;;;15.40;57.80;;;;;;4205235;28;20047;-66
2022/04/25 08:05:44;;;;;;;8.18;4.07;;;15.40;58.30;;;;;;4206130;28;20382;-64
2022/04/25 08:08:06;;;;;;;7.88;4.43;;;15.40;57.90;;;;;;4206265;28;20398;-64
2022/04/25 08:10:33;;;;;;;7.13;3.80;;;15.40;57.80;;;;;;4206296;28;20475;-67
2022/04/25 08:18:14;;;;;;;7.53;4.07;;;15.40;57.40;;;;;;4205230;28;20050;-64
2022/04/25 08:20:39;;;;;;;8.73;4.38;;;15.40;57.70;;;;;;4206288;28;20452;-63
2022/04/25 08:23:01;;;;;;;5.38;3.50;;;15.40;57.80;;;;;;4206386;28;20168;-64
2022/04/25 08:25:25;;;;;;;7.43;4.40;;;15.40;57.90;;;;;;4205777;28;20055;-64
2022/04/25 08:27:47;;;;;;;9.02;3.85;;;15.40;57.50;;;;;;4204847;28;20052;-64
2022/04/25 08:30:11;;;;;;;6.47;4.10;;;15.50;57.10;;;;;;4204904;28;20101;-63
2022/04/25 08:32:33;;;;;;;4.20;3.08;;;15.50;56.80;;;;;;4205442;28;20056;-64
2022/04/25 08:34:55;;;;;;;6.35;4.22;;;15.50;56.90;;;;;;4206096;28;20452;-64
2022/04/25 08:37:18;;;;;;;6.60;3.83;;;15.50;57.00;;;;;;4206064;28;20163;-61
2022/04/25 08:39:40;;;;;;;7.07;3.70;;;15.50;56.80;;;;;;4205450;28;20086;-63
2022/04/25 08:42:07;;;;;;;4.00;3.60;;;15.50;57.00;;;;;;4205982;28;20047;-64
2022/04/25 08:44:51;;;;;;;12.40;4.93;;;15.50;57.10;;;;;;4205444;28;20123;-63
2022/04/25 08:47:15;;;;;;;6.28;4.22;;;15.50;56.90;;;;;;4205977;28;20059;-64
2022/04/25 08:49:38;;;;;;;4.72;3.65;;;15.50;56.80;;;;;;4205861;28;20115;-64
2022/04/25 08:52:03;;;;;;;8.25;4.45;;;15.50;56.90;;;;;;4205955;28;20040;-64
2022/04/25 08:54:30;;;;;;;9.80;4.40;;;15.50;56.90;;;;;;4205876;28;20552;-64
2022/04/25 08:56:52;;;;;;;8.85;4.45;;;15.50;56.90;;;;;;4205552;28;20051;-64
2022/04/25 08:59:14;;;;;;;5.45;3.80;;;15.50;57.20;;;;;;4206242;28;20080;-64
2022/04/25 09:01:40;;;;;;;5.97;4.10;;;15.40;57.30;;;;;;4205437;28;20051;-63
2022/04/25 09:04:03;;;;;;;5.05;3.67;;;15.50;57.60;;;;;;4205891;28;20479;-64
2022/04/25 09:06:25;;;;;;;5.93;4.00;;;15.50;57.50;;;;;;4205698;28;20132;-64
2022/04/25 09:08:47;;;;;;;6.10;3.92;;;15.50;57.60;;;;;;4204456;28;20070;-64
2022/04/25 09:13:52;;;;;;;;;;;15.50;57.90;;;;;;4205004;28;20549;-64
2022/04/25 09:16:13;;;;;;;7.60;4.30;;;15.50;58.00;;;;;;4208040;28;19992;-65
2022/04/25 09:18:37;;;;;;;4.47;4.07;;;15.50;57.70;;;;;;4207511;28;20050;-64
2022/04/25 09:21:04;;;;;;;12.70;5.30;;;15.60;57.60;;;;;;4209201;28;20048;-64
2022/04/25 09:23:26;;;;;;;9.98;3.83;;;15.60;57.50;;;;;;4208434;28;20058;-65
2022/04/25 09:26:11;;;;;;;5.63;3.78;;;15.60;57.70;;;;;;4208316;28;20048;-65
2022/04/25 09:28:46;;;;;;;8.50;4.40;;;15.60;57.80;;;;;;4208402;28;20399;-64
2022/04/25 09:31:14;;;;;;;5.32;4.05;;;15.60;57.90;;;;;;4207763;28;20051;-65
2022/04/25 09:33:36;;;;;;;9.48;3.95;;;15.70;57.80;;;;;;4208156;28;20079;-65
2022/04/25 09:35:59;;;;;;;7.50;3.85;;;15.70;57.80;;;;;;4206990;28;20064;-65
2022/04/25 09:38:30;;;;;;;3.92;3.50;;;15.70;58.20;;;;;;4208001;28;20076;-65
2022/04/25 09:40:52;;;;;;;10.50;4.50;;;15.80;57.90;;;;;;4208144;28;20526;-65
2022/04/25 09:43:15;;;;;;;8.55;4.13;;;15.80;57.60;;;;;;4207777;28;20055;-65
2022/04/25 09:45:40;;;;;;;6.18;3.90;;;15.80;57.70;;;;;;4207375;28;20097;-63
2022/04/25 09:48:03;;;;;;;6.25;4.40;;;15.80;58.00;;;;;;4208155;28;20109;-65
2022/04/25 09:50:27;;;;;;;4.93;3.67;;;15.90;57.90;;;;;;4208016;28;20518;-65
2022/04/25 09:53:08;;;;;;;5.55;3.80;;;15.80;57.40;;;;;;4207461;28;20058;-65
2022/04/25 09:55:33;;;;;;;5.85;4.38;;;15.90;57.30;;;;;;4208829;28;20063;-65
2022/04/25 09:57:55;;;;;;;6.30;3.83;;;15.80;57.20;;;;;;4208446;28;20044;-65
2022/04/25 10:00:33;;;;;;;5.72;3.55;;;15.80;57.30;;;;;;4207221;28;20056;-65
2022/04/25 10:02:56;;;;;;;6.28;3.83;;;15.80;57.50;;;;;;4208008;28;20044;-64
2022/04/25 10:05:18;;;;;;;7.30;4.30;;;15.80;57.80;;;;;;4207466;28;20071;-64
2022/04/25 10:07:43;;;;;;;6.10;3.80;;;15.80;57.80;;;;;;4208001;28;20055;-64
2022/04/25 10:10:06;;;;;;;4.68;3.58;;;15.80;57.50;;;;;;4208069;28;20139;-64
2022/04/25 10:12:29;;;;;;;6.13;4.15;;;15.80;57.80;;;;;;4207467;28;20051;-64
2022/04/25 10:14:51;;;;;;;5.90;4.47;;;15.80;57.70;;;;;;4207620;28;20058;-64
2022/04/25 10:17:16;;;;;;;9.18;4.55;;;15.90;57.80;;;;;;4207647;28;20185;-64
2022/04/25 10:19:40;;;;;;;4.68;3.95;;;15.90;58.00;;;;;;4208019;28;20051;-65
2022/04/25 10:22:02;;;;;;;6.63;3.90;;;15.90;58.10;;;;;;4208165;28;20056;-65
2022/04/25 10:24:25;;;;;;;6.85;3.75;;;15.90;57.80;;;;;;4207143;28;20056;-65
2022/04/25 10:26:48;;;;;;;6.15;3.95;;;15.90;58.00;;;;;;4207396;28;20070;-64
2022/04/25 10:29:14;;;;;;;5.68;5.03;;;16.00;58.00;;;;;;4207523;28;20131;-65
2022/04/25 10:31:41;;;;;;;5.13;4.00;;;16.00;57.50;;;;;;4205924;28;20055;-64
2022/04/25 10:34:04;;;;;;;5.45;3.97;;;16.00;57.10;;;;;;4206611;28;20097;-64
2022/04/25 10:36:43;;;;;;;5.45;3.72;;;16.00;57.30;;;;;;4207616;28;20487;-64
2022/04/25 10:39:12;;;;;;;5.90;4.13;;;16.00;57.20;;;;;;4207490;28;20054;-65
2022/04/25 10:44:59;;;;;;;5.18;4.15;;;16.00;57.30;;;;;;4206537;28;20051;-65
2022/04/25 10:47:23;;;;;;;5.18;4.45;;;16.00;57.20;;;;;;4206517;28;20080;-64
2022/04/25 10:49:47;;;;;;;6.72;4.57;;;16.10;56.90;;;;;;4206921;28;20115;-65
2022/04/25 10:52:54;;;;;;;4.60;3.88;;;16.10;56.90;;;;;;4206562;28;20479;-65
2022/04/25 10:55:20;;;;;;;5.80;3.75;;;16.10;57.10;;;;;;4206618;28;20055;-63
2022/04/25 10:58:11;;;;;;;7.68;4.45;;;16.10;57.20;;;;;;4207093;28;20063;-65
2022/04/25 11:01:00;;;;;;;5.28;4.32;;;16.10;57.30;;;;;;4206902;28;20459;-65
2022/04/25 11:03:25;;;;;;;6.53;4.63;;;16.10;56.90;;;;;;4196380;28;20504;-65
2022/04/25 11:05:49;;;;;;;6.20;4.82;;;16.10;57.20;;;;;;4208547;28;20143;-65
2022/04/25 11:08:34;;;;;;;5.43;4.00;;;16.10;57.20;;;;;;4207821;28;20052;-65
2022/04/25 11:11:20;;;;;;;5.97;4.20;;;16.10;57.00;;;;;;4205506;28;20518;-65
2022/04/25 11:14:14;;;;;;;6.45;4.57;;;16.10;57.20;;;;;;4206744;28;20129;-64
2022/04/25 11:16:36;;;;;;;8.45;4.70;;;16.20;57.00;;;;;;4206981;28;20055;-64
2022/04/25 11:19:08;;;;;;;6.85;3.95;;;16.20;57.60;;;;;;4206900;28;20054;-64
2022/04/25 11:21:32;;;;;;;;;;;16.20;56.70;;;;;;4206585;28;20054;-64
2022/04/25 11:23:56;;;;;;;7.53;4.53;;;16.20;56.90;;;;;;4206915;28;19923;-64
2022/04/25 11:26:56;;;;;;;6.45;4.40;;;16.20;56.60;;;;;;4206363;28;20112;-65
2022/04/25 11:29:19;;;;;;;7.18;4.63;;;16.20;56.60;;;;;;4195827;28;20356;-65
2022/04/25 11:31:41;;;;;;;3.85;3.55;;;16.20;56.60;;;;;;4205521;28;20449;-65
2022/04/25 11:34:04;;;;;;;4.28;3.78;;;16.20;56.70;;;;;;4206303;28;20068;-64
2022/04/25 11:36:27;;;;;;;4.88;4.25;;;16.30;56.80;;;;;;4206480;28;20245;-63
2022/04/25 11:41:33;;;;;;;5.05;4.40;;;16.30;56.10;;;;;;4205973;28;20459;-65
2022/04/25 11:43:55;;;;;;;5.45;4.10;;;16.30;56.10;;;;;;4205210;28;20048;-65
2022/04/25 11:46:18;;;;;;;6.85;4.18;;;16.30;56.40;;;;;;4205780;28;20100;-64
2022/04/25 11:48:41;;;;;;;4.80;4.20;;;16.30;56.60;;;;;;4206276;28;20509;-64
2022/04/25 11:51:03;;;;;;;5.72;4.07;;;16.30;56.70;;;;;;4206108;28;20063;-65
2022/04/25 11:53:32;;;;;;;4.28;3.95;;;16.30;56.70;;;;;;4206773;28;20475;-65
2022/04/25 11:55:56;;;;;;;4.80;4.30;;;16.30;55.80;;;;;;4206337;28;20043;-65
2022/04/25 11:58:28;;;;;;;7.68;3.30;;;16.30;55.90;;;;;;4206103;28;20129;-65
2022/04/25 12:00:50;;;;;;;5.75;4.75;;;16.30;56.10;;;;;;4206483;28;20524;-65
2022/04/25 12:03:19;;;;;;;6.40;4.35;;;16.30;56.30;;;;;;4206671;28;20052;-65
2022/04/25 12:05:42;;;;;;;4.82;4.18;;;16.30;56.10;;;;;;4207403;28;20054;-65
2022/04/25 12:16:05;;;;;;;6.72;5.22;;;16.40;56.20;;;;;;4206477;28;20603;-65
2022/04/25 12:18:29;;;;;;;4.95;4.45;;;16.40;56.00;;;;;;4206072;28;20144;-65
2022/04/25 12:21:02;;;;;;;5.40;4.90;;;16.40;55.90;;;;;;4205827;28;20055;-64
2022/04/25 12:23:26;;;;;;;7.95;5.18;;;16.40;56.00;;;;;;4206221;28;20185;-64
2022/04/25 12:25:49;;;;;;;6.03;5.40;;;16.50;55.90;;;;;;4206290;28;20052;-65
2022/04/25 12:28:17;;;;;;;6.13;4.72;;;16.50;55.70;;;;;;4205945;28;20048;-64
2022/04/25 12:30:49;;;;;;;5.95;5.35;;;16.50;56.10;;;;;;4205714;28;20059;-64
2022/04/25 12:33:13;;;;;;;7.38;4.85;;;16.50;56.10;;;;;;4205661;28;20055;-64
2022/04/25 12:35:36;;;;;;;6.07;5.10;;;16.50;55.70;;;;;;4206476;28;20056;-65
2022/04/25 12:37:58;;;;;;;5.63;5.03;;;16.50;55.90;;;;;;4205984;28;20047;-64
2022/04/25 12:40:20;;;;;;;8.88;5.38;;;16.60;55.70;;;;;;4205920;28;20040;-64
2022/04/25 12:42:46;;;;;;;7.07;5.30;;;16.60;55.80;;;;;;4206070;28;20067;-64
2022/04/25 12:45:09;;;;;;;6.53;5.07;;;16.60;55.60;;;;;;4206458;28;20479;-64
2022/04/25 12:47:33;;;;;;;5.50;5.03;;;16.60;55.80;;;;;;4205932;28;20052;-64
2022/04/25 12:49:58;;;;;;;6.43;5.43;;;16.60;55.40;;;;;;4207543;28;20055;-64
2022/04/25 12:52:20;;;;;;;9.75;5.28;;;16.60;55.70;;;;;;4209004;28;20130;-65
2022/04/25 12:54:49;;;;;;;8.32;5.47;;;16.70;55.90;;;;;;4209254;28;20106;-65
2022/04/25 12:57:13;;;;;;;8.88;5.75;;;16.70;56.40;;;;;;4208667;28;20047;-64
2022/04/25 12:59:36;;;;;;;6.68;5.97;;;16.70;56.40;;;;;;4208765;28;20044;-63
2022/04/25 13:02:06;;;;;;;9.90;5.68;;;16.70;56.60;;;;;;4209493;28;20486;-64
2022/04/25 13:04:29;;;;;;;8.65;5.95;;;16.70;56.60;;;;;;4208807;28;20100;-64
2022/04/25 13:06:56;;;;;;;8.13;5.90;;;16.70;56.60;;;;;;4207108;28;20125;-64
2022/04/25 13:09:18;;;;;;;9.63;5.38;;;16.70;56.60;;;;;;4208488;28;20058;-64
2022/04/25 13:11:48;;;;;;;6.78;5.50;;;16.70;56.30;;;;;;4208309;28;20051;-64